Time;durP1;ratioP1;P1;durP2;ratioP2;P2;SDS_P1;SDS_P2;PMS_P1;PMS_P2;Temp;Humidity;BMP_temperature;BMP_pressure;BME280_temperature;BME280_humidity;BME280_pressure;Samples;Min_cycle;Max_cycle;Signal;HPM_P1;HPM_P2
2024/01/28 00:04:24;;;;;;;;;;;2.60;99.90;;;;;;20869612;28;19924;-80
2024/01/28 00:14:25;;;;;;;;;;;2.40;99.90;;;;;;20885787;28;19913;-81
2024/01/28 00:24:27;;;;;;;;;;;2.40;99.90;;;;;;20863409;28;19923;-78
2024/01/28 00:34:28;;;;;;;;;;;2.40;99.90;;;;;;20878943;28;19980;-81
2024/01/28 00:44:28;;;;;;;;;;;2.20;99.90;;;;;;20889690;28;19979;-80
2024/01/28 00:54:29;;;;;;;;;;;2.20;99.90;;;;;;20868044;28;19914;-81
2024/01/28 01:04:30;;;;;;;;;;;2.00;99.90;;;;;;20843514;28;20370;-79
2024/01/28 01:14:35;;;;;;;;;;;1.90;99.90;;;;;;20853207;28;19917;-79
2024/01/28 01:24:36;;;;;;;;;;;1.50;99.90;;;;;;20836054;28;19917;-80
2024/01/28 01:34:36;;;;;;;;;;;1.50;99.90;;;;;;20847335;28;20296;-79
2024/01/28 01:44:37;;;;;;;;;;;1.30;99.90;;;;;;20836725;28;20030;-79
2024/01/28 01:54:37;;;;;;;;;;;1.20;99.90;;;;;;20841725;28;19975;-80
2024/01/28 02:04:38;;;;;;;;;;;0.90;99.90;;;;;;20830406;28;19917;-79
2024/01/28 02:14:39;;;;;;;;;;;1.20;99.90;;;;;;20832164;28;20025;-78
2024/01/28 02:24:40;;;;;;;;;;;1.20;99.90;;;;;;20828927;28;20272;-78
2024/01/28 02:34:41;;;;;;;;;;;1.20;99.90;;;;;;20827041;28;19921;-79
2024/01/28 02:44:41;;;;;;;;;;;1.40;99.90;;;;;;20833147;28;19917;-79
2024/01/28 02:54:42;;;;;;;;;;;1.30;99.90;;;;;;20831384;28;19913;-79
2024/01/28 03:04:43;;;;;;;;;;;1.10;99.90;;;;;;20842190;28;19917;-80
2024/01/28 03:14:43;;;;;;;;;;;1.10;99.90;;;;;;20846806;28;19913;-78
2024/01/28 03:24:44;;;;;;;;;;;1.30;99.90;;;;;;20846387;28;19925;-79
2024/01/28 03:34:44;;;;;;;;;;;1.50;99.90;;;;;;20831588;28;19917;-79
2024/01/28 03:44:45;;;;;;;;;;;1.30;99.90;;;;;;20846856;28;20552;-79
2024/01/28 03:54:46;;;;;;;;;;;1.10;99.90;;;;;;20839957;28;19920;-80
2024/01/28 04:04:47;;;;;;;;;;;1.10;99.90;;;;;;20813206;28;19948;-79
2024/01/28 04:14:47;;;;;;;;;;;0.90;99.90;;;;;;20815160;28;19924;-78
2024/01/28 04:24:48;;;;;;;;;;;0.80;99.90;;;;;;20840725;28;19928;-79
2024/01/28 04:34:48;;;;;;;;;;;0.80;99.90;;;;;;20846949;28;19917;-79
2024/01/28 04:44:49;;;;;;;;;;;0.70;99.90;;;;;;20829667;28;19949;-78
2024/01/28 04:54:50;;;;;;;;;;;0.70;99.90;;;;;;20825629;28;19931;-78
2024/01/28 05:04:51;;;;;;;;;;;0.70;99.90;;;;;;20840012;28;20024;-79
2024/01/28 05:14:51;;;;;;;;;;;1.00;99.90;;;;;;20837753;28;19913;-79
2024/01/28 05:24:53;;;;;;;;;;;1.00;99.90;;;;;;20838670;28;20389;-77
2024/01/28 05:34:56;;;;;;;;;;;1.10;99.90;;;;;;20850398;28;19964;-80
2024/01/28 05:44:56;;;;;;;;;;;1.10;99.90;;;;;;20824613;28;20012;-80
2024/01/28 05:54:57;;;;;;;;;;;1.20;99.90;;;;;;20821911;28;19913;-79
2024/01/28 06:04:57;;;;;;;;;;;1.30;99.90;;;;;;20822897;28;20303;-79
2024/01/28 06:15:04;;;;;;;;;;;1.30;99.90;;;;;;20838638;28;19953;-78
2024/01/28 06:25:06;;;;;;;;;;;1.30;99.90;;;;;;20816992;28;19928;-77
2024/01/28 06:35:07;;;;;;;;;;;1.30;99.90;;;;;;20838942;28;20300;-79
2024/01/28 06:45:08;;;;;;;;;;;1.30;99.90;;;;;;20846889;28;19963;-79
2024/01/28 06:55:09;;;;;;;;;;;1.30;99.90;;;;;;20867936;28;19917;-79
2024/01/28 07:05:09;;;;;;;;;;;1.60;99.90;;;;;;20863047;28;19924;-79
2024/01/28 07:15:10;;;;;;;;;;;1.70;99.90;;;;;;20855668;28;19913;-78
2024/01/28 07:25:11;;;;;;;;;;;1.50;99.90;;;;;;20854717;28;19928;-78
2024/01/28 07:35:12;;;;;;;;;;;1.30;99.90;;;;;;20858700;28;20343;-78
2024/01/28 07:45:13;;;;;;;;;;;1.30;99.90;;;;;;20845074;28;19917;-81
2024/01/28 07:55:14;;;;;;;;;;;1.30;99.90;;;;;;20813615;28;19913;-79
2024/01/28 08:05:14;;;;;;;;;;;1.40;99.90;;;;;;20828259;28;19918;-77
2024/01/28 08:15:15;;;;;;;;;;;1.50;99.90;;;;;;20838808;28;19913;-78
2024/01/28 08:25:16;;;;;;;;;;;1.70;99.90;;;;;;20840849;28;20003;-77
2024/01/28 08:35:17;;;;;;;;;;;1.70;99.90;;;;;;20834384;28;19960;-79
2024/01/28 08:45:19;;;;;;;;;;;1.90;99.90;;;;;;20829053;28;20381;-79
2024/01/28 08:55:23;;;;;;;;;;;1.90;99.90;;;;;;20847460;28;19999;-79
2024/01/28 09:05:23;;;;;;;;;;;2.00;99.90;;;;;;20842302;28;19917;-78
2024/01/28 09:15:24;;;;;;;;;;;2.10;99.90;;;;;;20832995;28;19992;-77
2024/01/28 09:25:28;;;;;;;;;;;2.10;99.90;;;;;;20834105;28;19917;-78
2024/01/28 09:35:29;;;;;;;;;;;2.40;99.90;;;;;;20849583;28;19925;-78
2024/01/28 09:45:30;;;;;;;;;;;2.30;99.90;;;;;;20850938;28;19952;-79
2024/01/28 09:55:31;;;;;;;;;;;2.50;99.90;;;;;;20828329;28;20301;-79
2024/01/28 10:05:31;;;;;;;;;;;2.70;99.90;;;;;;20839500;28;19929;-79
2024/01/28 10:15:32;;;;;;;;;;;2.80;99.90;;;;;;20834314;28;19924;-78
2024/01/28 10:25:33;;;;;;;;;;;3.00;99.90;;;;;;20831949;28;20292;-78
2024/01/28 10:35:33;;;;;;;;;;;3.10;99.90;;;;;;20806381;28;19955;-79
2024/01/28 10:45:36;;;;;;;;;;;3.30;99.90;;;;;;20853726;28;19923;-79
2024/01/28 10:55:38;;;;;;;;;;;3.50;99.90;;;;;;20849455;28;19920;-79
2024/01/28 11:05:39;;;;;;;;;;;3.60;99.90;;;;;;20852418;28;20366;-78
2024/01/28 11:15:41;;;;;;;;;;;3.70;99.90;;;;;;20843602;28;19932;-80
2024/01/28 11:25:42;;;;;;;;;;;3.90;99.90;;;;;;20848616;28;19928;-79
2024/01/28 11:35:43;;;;;;;;;;;4.00;99.90;;;;;;20868325;28;20362;-79
2024/01/28 11:45:44;;;;;;;;;;;4.40;99.90;;;;;;20839259;28;19923;-79
2024/01/28 11:55:45;;;;;;;;;;;4.70;99.90;;;;;;20863334;28;19913;-79
2024/01/28 12:05:46;;;;;;;;;;;4.90;99.90;;;;;;20882575;28;19940;-79
2024/01/28 12:15:46;;;;;;;;;;;5.00;99.90;;;;;;20873394;28;20020;-79
2024/01/28 12:25:49;;;;;;;;;;;5.30;99.90;;;;;;20856837;28;19921;-81
2024/01/28 12:35:49;;;;;;;;;;;5.50;99.90;;;;;;20826914;28;20435;-78
2024/01/28 12:45:51;;;;;;;;;;;6.10;99.90;;;;;;20854156;28;19921;-78
2024/01/28 12:55:51;;;;;;;;;;;6.40;99.90;;;;;;20804574;28;19917;-78
2024/01/28 13:05:52;;;;;;;;;;;7.10;99.90;;;;;;20854269;28;20283;-79
2024/01/28 13:15:53;;;;;;;;;;;6.90;99.90;;;;;;20836905;28;19913;-79
2024/01/28 13:25:53;;;;;;;;;;;6.50;99.90;;;;;;20851904;28;19980;-79
2024/01/28 13:35:54;;;;;;;;;;;7.30;99.90;;;;;;20845286;28;19924;-79
2024/01/28 13:45:56;;;;;;;;;;;7.50;99.90;;;;;;20851625;28;19999;-79
2024/01/28 13:56:02;;;;;;;;;;;7.80;99.90;;;;;;20844771;28;19913;-80
2024/01/28 14:06:04;;;;;;;;;;;8.10;99.90;;;;;;20842296;28;19917;-79
2024/01/28 14:16:05;;;;;;;;;;;8.20;99.90;;;;;;20852311;28;20365;-78
2024/01/28 14:26:06;;;;;;;;;;;7.40;99.90;;;;;;20830775;28;19917;-78
2024/01/28 14:36:06;;;;;;;;;;;6.80;99.90;;;;;;20851433;28;20343;-78
2024/01/28 14:46:07;;;;;;;;;;;6.70;99.90;;;;;;20846814;28;20295;-79
2024/01/28 14:56:08;;;;;;;;;;;6.70;99.90;;;;;;20828919;28;19949;-78
2024/01/28 15:06:09;;;;;;;;;;;6.50;99.90;;;;;;20855683;28;20008;-79
2024/01/28 15:16:09;;;;;;;;;;;6.30;99.90;;;;;;20875285;28;19912;-79
2024/01/28 15:26:10;;;;;;;;;;;6.20;99.90;;;;;;20892453;28;19917;-79
2024/01/28 15:36:11;;;;;;;;;;;5.90;99.90;;;;;;20837258;28;19917;-79
2024/01/28 15:46:12;;;;;;;;;;;5.30;99.90;;;;;;20854197;28;19963;-78
2024/01/28 15:56:15;;;;;;;;;;;5.20;99.90;;;;;;20866588;28;19913;-79
2024/01/28 16:06:16;;;;;;;;;;;4.50;99.90;;;;;;20895824;28;19939;-78
2024/01/28 16:16:17;;;;;;;;;;;4.10;99.90;;;;;;20868795;28;19913;-77
2024/01/28 16:26:17;;;;;;;;;;;3.90;99.90;;;;;;20863140;28;19917;-78
2024/01/28 16:36:18;;;;;;;;;;;3.80;99.90;;;;;;20851212;28;19951;-79
2024/01/28 16:46:19;;;;;;;;;;;3.70;99.90;;;;;;20841071;28;19917;-78
2024/01/28 16:56:21;;;;;;;;;;;3.60;99.90;;;;;;20845841;28;20217;-78
2024/01/28 17:06:22;;;;;;;;;;;3.50;99.90;;;;;;20859627;28;19921;-79
2024/01/28 17:16:23;;;;;;;;;;;3.50;99.90;;;;;;20858448;28;19921;-78
2024/01/28 17:26:24;;;;;;;;;;;3.30;99.90;;;;;;20856028;28;20360;-79
2024/01/28 17:36:26;;;;;;;;;;;3.20;99.90;;;;;;20857102;28;19917;-79
2024/01/28 17:46:28;;;;;;;;;;;3.10;99.90;;;;;;20841748;28;19917;-79
2024/01/28 17:56:29;;;;;;;;;;;3.00;99.90;;;;;;20829865;28;20004;-79
2024/01/28 18:06:30;;;;;;;;;;;3.00;99.90;;;;;;20851307;28;19916;-79
2024/01/28 18:16:30;;;;;;;;;;;3.00;99.90;;;;;;20847678;28;19959;-80
2024/01/28 18:26:31;;;;;;;;;;;2.80;99.90;;;;;;20855949;28;19917;-80
2024/01/28 18:36:32;;;;;;;;;;;2.60;99.90;;;;;;20861540;28;19921;-78
2024/01/28 18:46:32;;;;;;;;;;;2.40;99.90;;;;;;20852928;28;19992;-78
2024/01/28 18:56:34;;;;;;;;;;;2.30;99.90;;;;;;20843168;28;19913;-79
2024/01/28 19:06:35;;;;;;;;;;;2.30;99.90;;;;;;20841045;28;19923;-79
2024/01/28 19:16:39;;;;;;;;;;;2.20;99.90;;;;;;20825368;28;19913;-79
2024/01/28 19:26:40;;;;;;;;;;;2.10;99.90;;;;;;20848541;28;19995;-79
2024/01/28 19:36:41;;;;;;;;;;;2.10;99.90;;;;;;20864716;28;19921;-78
2024/01/28 19:46:42;;;;;;;;;;;1.90;99.90;;;;;;20870292;28;20000;-80
2024/01/28 19:56:42;;;;;;;;;;;1.90;99.90;;;;;;20874272;28;19913;-80
2024/01/28 20:06:43;;;;;;;;;;;1.80;99.90;;;;;;20854587;28;19924;-79
2024/01/28 20:16:45;;;;;;;;;;;1.70;99.90;;;;;;20866156;28;20003;-80
2024/01/28 20:26:45;;;;;;;;;;;1.60;99.90;;;;;;20845465;28;19924;-80
2024/01/28 20:36:46;;;;;;;;;;;1.40;99.90;;;;;;20844834;28;19918;-79
2024/01/28 20:46:47;;;;;;;;;;;1.30;99.90;;;;;;20871156;28;20403;-79
2024/01/28 20:56:47;;;;;;;;;;;1.10;99.90;;;;;;20845657;28;20360;-79
2024/01/28 21:06:48;;;;;;;;;;;0.90;99.90;;;;;;20858032;28;19917;-77
2024/01/28 21:16:50;;;;;;;;;;;0.60;99.90;;;;;;20852722;28;19913;-78
2024/01/28 21:26:51;;;;;;;;;;;0.30;99.90;;;;;;20850861;28;19924;-78
2024/01/28 21:37:01;;;;;;;;;;;0.10;99.90;;;;;;20837057;28;19924;-78
2024/01/28 21:47:05;;;;;;;;;;;0.00;99.90;;;;;;20797598;28;19990;-77
2024/01/28 21:57:05;;;;;;;;;;;-0.40;99.90;;;;;;20864542;28;19912;-78
2024/01/28 22:07:06;;;;;;;;;;;-0.50;99.90;;;;;;20832524;28;19916;-79
2024/01/28 22:17:07;;;;;;;;;;;-0.50;99.90;;;;;;20849404;28;19938;-79
2024/01/28 22:27:07;;;;;;;;;;;-0.50;99.90;;;;;;20866099;28;19939;-79
2024/01/28 22:37:08;;;;;;;;;;;-0.50;99.90;;;;;;20859741;28;19931;-79
2024/01/28 22:47:09;;;;;;;;;;;-0.50;99.90;;;;;;20847648;28;19917;-78
2024/01/28 22:57:11;;;;;;;;;;;-0.50;99.90;;;;;;20859137;28;19978;-78
2024/01/28 23:07:12;;;;;;;;;;;-0.50;99.90;;;;;;20844475;28;20291;-78
2024/01/28 23:17:13;;;;;;;;;;;-0.70;99.90;;;;;;20839024;28;19980;-80
2024/01/28 23:27:13;;;;;;;;;;;-0.70;99.90;;;;;;20860314;28;19917;-79
2024/01/28 23:37:14;;;;;;;;;;;-0.70;99.90;;;;;;20841411;28;19917;-80
2024/01/28 23:47:15;;;;;;;;;;;-0.70;99.90;;;;;;20838184;28;20072;-79
2024/01/28 23:57:16;;;;;;;;;;;-0.60;99.90;;;;;;20838000;28;20376;-78
